sensor_id;sensor_type;location;lat;lon;timestamp;temperature;humidity
14301;DHT22;7234;59.306;18.024;2023-04-25T00:02:01;4.80;99.90
14301;DHT22;7234;59.306;18.024;2023-04-25T00:04:30;4.70;99.90
14301;DHT22;7234;59.306;18.024;2023-04-25T00:07:00;4.70;99.90
14301;DHT22;7234;59.306;18.024;2023-04-25T00:09:28;4.70;99.90
14301;DHT22;7234;59.306;18.024;2023-04-25T00:11:55;4.70;99.90
14301;DHT22;7234;59.306;18.024;2023-04-25T00:14:22;4.70;99.90
14301;DHT22;7234;59.306;18.024;2023-04-25T00:16:49;4.70;99.90
14301;DHT22;7234;59.306;18.024;2023-04-25T00:19:17;4.70;99.90
14301;DHT22;7234;59.306;18.024;2023-04-25T00:21:44;4.70;99.90
14301;DHT22;7234;59.306;18.024;2023-04-25T00:24:14;4.70;99.90
14301;DHT22;7234;59.306;18.024;2023-04-25T00:26:41;4.70;99.90
14301;DHT22;7234;59.306;18.024;2023-04-25T00:29:08;4.70;99.90
14301;DHT22;7234;59.306;18.024;2023-04-25T00:31:35;4.70;99.90
14301;DHT22;7234;59.306;18.024;2023-04-25T00:34:02;4.70;99.90
14301;DHT22;7234;59.306;18.024;2023-04-25T00:36:29;4.70;99.90
14301;DHT22;7234;59.306;18.024;2023-04-25T00:38:57;4.60;99.90
14301;DHT22;7234;59.306;18.024;2023-04-25T00:41:27;4.70;99.90
14301;DHT22;7234;59.306;18.024;2023-04-25T00:43:56;4.70;99.90
14301;DHT22;7234;59.306;18.024;2023-04-25T00:46:24;4.70;99.90
14301;DHT22;7234;59.306;18.024;2023-04-25T00:48:51;4.70;99.90
14301;DHT22;7234;59.306;18.024;2023-04-25T00:51:20;4.70;99.90
14301;DHT22;7234;59.306;18.024;2023-04-25T00:53:49;4.70;99.90
14301;DHT22;7234;59.306;18.024;2023-04-25T00:56:17;4.60;99.90
14301;DHT22;7234;59.306;18.024;2023-04-25T00:58:45;4.60;99.90
14301;DHT22;7234;59.306;18.024;2023-04-25T01:01:13;4.60;99.90
14301;DHT22;7234;59.306;18.024;2023-04-25T01:03:43;4.60;99.90
14301;DHT22;7234;59.306;18.024;2023-04-25T01:06:13;4.60;99.90
14301;DHT22;7234;59.306;18.024;2023-04-25T01:08:40;4.50;99.90
14301;DHT22;7234;59.306;18.024;2023-04-25T01:11:07;4.50;99.90
14301;DHT22;7234;59.306;18.024;2023-04-25T01:13:34;4.50;99.90
14301;DHT22;7234;59.306;18.024;2023-04-25T01:16:03;4.50;99.90
14301;DHT22;7234;59.306;18.024;2023-04-25T01:18:32;4.50;99.90
14301;DHT22;7234;59.306;18.024;2023-04-25T01:21:07;4.50;99.90
14301;DHT22;7234;59.306;18.024;2023-04-25T01:23:34;4.60;99.90
14301;DHT22;7234;59.306;18.024;2023-04-25T01:26:02;4.50;99.90
14301;DHT22;7234;59.306;18.024;2023-04-25T01:28:30;4.50;99.90
14301;DHT22;7234;59.306;18.024;2023-04-25T01:30:58;4.50;99.90
14301;DHT22;7234;59.306;18.024;2023-04-25T01:33:25;4.50;99.90
14301;DHT22;7234;59.306;18.024;2023-04-25T01:35:53;4.50;99.90
14301;DHT22;7234;59.306;18.024;2023-04-25T01:38:22;4.50;99.90
14301;DHT22;7234;59.306;18.024;2023-04-25T01:40:51;4.50;99.90
14301;DHT22;7234;59.306;18.024;2023-04-25T01:43:18;4.50;99.90
14301;DHT22;7234;59.306;18.024;2023-04-25T01:45:46;4.50;99.90
14301;DHT22;7234;59.306;18.024;2023-04-25T01:48:14;4.40;99.90
14301;DHT22;7234;59.306;18.024;2023-04-25T01:50:42;4.50;99.90
14301;DHT22;7234;59.306;18.024;2023-04-25T01:53:09;4.50;99.90
14301;DHT22;7234;59.306;18.024;2023-04-25T01:55:40;4.50;99.90
14301;DHT22;7234;59.306;18.024;2023-04-25T01:58:08;4.50;99.90
14301;DHT22;7234;59.306;18.024;2023-04-25T02:00:38;4.50;99.90
14301;DHT22;7234;59.306;18.024;2023-04-25T02:03:07;4.40;99.90
14301;DHT22;7234;59.306;18.024;2023-04-25T02:05:35;4.40;99.90
14301;DHT22;7234;59.306;18.024;2023-04-25T02:08:04;4.40;99.90
14301;DHT22;7234;59.306;18.024;2023-04-25T02:10:32;4.40;99.90
14301;DHT22;7234;59.306;18.024;2023-04-25T02:13:01;4.40;99.90
14301;DHT22;7234;59.306;18.024;2023-04-25T02:15:30;4.30;99.90
14301;DHT22;7234;59.306;18.024;2023-04-25T02:17:57;4.30;99.90
14301;DHT22;7234;59.306;18.024;2023-04-25T02:20:26;4.40;99.90
14301;DHT22;7234;59.306;18.024;2023-04-25T02:22:53;4.40;99.90
14301;DHT22;7234;59.306;18.024;2023-04-25T02:25:20;4.40;99.90
14301;DHT22;7234;59.306;18.024;2023-04-25T02:27:47;4.30;99.90
14301;DHT22;7234;59.306;18.024;2023-04-25T02:30:18;4.30;99.90
14301;DHT22;7234;59.306;18.024;2023-04-25T02:32:46;4.30;99.90
14301;DHT22;7234;59.306;18.024;2023-04-25T02:35:13;4.30;99.90
14301;DHT22;7234;59.306;18.024;2023-04-25T02:37:40;4.30;99.90
14301;DHT22;7234;59.306;18.024;2023-04-25T02:40:10;4.30;99.90
14301;DHT22;7234;59.306;18.024;2023-04-25T02:42:37;4.20;99.90
14301;DHT22;7234;59.306;18.024;2023-04-25T02:45:05;4.30;99.90
14301;DHT22;7234;59.306;18.024;2023-04-25T02:47:33;4.30;99.90
14301;DHT22;7234;59.306;18.024;2023-04-25T02:50:02;4.30;99.90
14301;DHT22;7234;59.306;18.024;2023-04-25T02:52:29;4.30;99.90
14301;DHT22;7234;59.306;18.024;2023-04-25T02:54:57;4.30;99.90
14301;DHT22;7234;59.306;18.024;2023-04-25T02:57:24;4.30;99.90
14301;DHT22;7234;59.306;18.024;2023-04-25T02:59:51;4.30;99.90
14301;DHT22;7234;59.306;18.024;2023-04-25T03:02:18;4.20;99.90
14301;DHT22;7234;59.306;18.024;2023-04-25T03:04:46;4.20;99.90
14301;DHT22;7234;59.306;18.024;2023-04-25T03:07:14;4.20;99.90
14301;DHT22;7234;59.306;18.024;2023-04-25T03:09:41;4.20;99.90
14301;DHT22;7234;59.306;18.024;2023-04-25T03:12:08;4.20;99.90
14301;DHT22;7234;59.306;18.024;2023-04-25T03:14:35;4.20;99.90
14301;DHT22;7234;59.306;18.024;2023-04-25T03:17:05;4.20;99.90
14301;DHT22;7234;59.306;18.024;2023-04-25T03:19:32;4.20;99.90
14301;DHT22;7234;59.306;18.024;2023-04-25T03:22:00;4.20;99.90
14301;DHT22;7234;59.306;18.024;2023-04-25T03:24:27;4.20;99.90
14301;DHT22;7234;59.306;18.024;2023-04-25T03:26:55;4.20;99.90
14301;DHT22;7234;59.306;18.024;2023-04-25T03:29:22;4.20;99.90
14301;DHT22;7234;59.306;18.024;2023-04-25T03:31:51;4.30;99.90
14301;DHT22;7234;59.306;18.024;2023-04-25T03:34:20;4.30;99.90
14301;DHT22;7234;59.306;18.024;2023-04-25T03:36:49;4.20;99.90
14301;DHT22;7234;59.306;18.024;2023-04-25T03:39:18;4.30;99.90
14301;DHT22;7234;59.306;18.024;2023-04-25T03:41:45;4.20;99.90
14301;DHT22;7234;59.306;18.024;2023-04-25T03:44:13;4.20;99.90
14301;DHT22;7234;59.306;18.024;2023-04-25T03:46:40;4.20;99.90
14301;DHT22;7234;59.306;18.024;2023-04-25T03:49:07;4.30;99.90
14301;DHT22;7234;59.306;18.024;2023-04-25T03:51:34;4.30;99.90
14301;DHT22;7234;59.306;18.024;2023-04-25T03:54:01;4.20;99.90
14301;DHT22;7234;59.306;18.024;2023-04-25T03:56:30;4.20;99.90
14301;DHT22;7234;59.306;18.024;2023-04-25T03:58:57;4.30;99.90
14301;DHT22;7234;59.306;18.024;2023-04-25T04:01:24;4.30;99.90
14301;DHT22;7234;59.306;18.024;2023-04-25T04:03:51;4.30;99.90
14301;DHT22;7234;59.306;18.024;2023-04-25T04:06:18;4.40;99.90
14301;DHT22;7234;59.306;18.024;2023-04-25T04:08:46;4.30;99.90
14301;DHT22;7234;59.306;18.024;2023-04-25T04:11:13;4.30;99.90
14301;DHT22;7234;59.306;18.024;2023-04-25T04:13:44;4.30;99.90
14301;DHT22;7234;59.306;18.024;2023-04-25T04:16:11;4.20;99.90
14301;DHT22;7234;59.306;18.024;2023-04-25T04:18:39;4.20;99.90
14301;DHT22;7234;59.306;18.024;2023-04-25T04:21:06;4.20;99.90
14301;DHT22;7234;59.306;18.024;2023-04-25T04:23:33;4.20;99.90
14301;DHT22;7234;59.306;18.024;2023-04-25T04:26:00;4.20;99.90
14301;DHT22;7234;59.306;18.024;2023-04-25T04:28:27;4.20;99.90
14301;DHT22;7234;59.306;18.024;2023-04-25T04:30:56;4.30;99.90
14301;DHT22;7234;59.306;18.024;2023-04-25T04:33:24;4.30;99.90
14301;DHT22;7234;59.306;18.024;2023-04-25T04:35:52;4.30;99.90
14301;DHT22;7234;59.306;18.024;2023-04-25T04:38:19;4.30;99.90
14301;DHT22;7234;59.306;18.024;2023-04-25T04:40:47;4.50;99.90
14301;DHT22;7234;59.306;18.024;2023-04-25T04:43:15;4.50;99.90
14301;DHT22;7234;59.306;18.024;2023-04-25T04:45:42;4.50;99.90
14301;DHT22;7234;59.306;18.024;2023-04-25T04:48:11;4.50;99.90
14301;DHT22;7234;59.306;18.024;2023-04-25T04:50:40;4.40;99.90
14301;DHT22;7234;59.306;18.024;2023-04-25T04:53:07;4.40;99.90
14301;DHT22;7234;59.306;18.024;2023-04-25T04:55:35;4.40;99.90
14301;DHT22;7234;59.306;18.024;2023-04-25T04:58:02;4.50;99.90
14301;DHT22;7234;59.306;18.024;2023-04-25T05:00:32;4.50;99.90
14301;DHT22;7234;59.306;18.024;2023-04-25T05:03:00;4.50;99.90
14301;DHT22;7234;59.306;18.024;2023-04-25T05:05:28;4.40;99.90
14301;DHT22;7234;59.306;18.024;2023-04-25T05:07:55;4.40;99.90
14301;DHT22;7234;59.306;18.024;2023-04-25T05:10:23;4.40;99.90
14301;DHT22;7234;59.306;18.024;2023-04-25T05:12:51;4.40;99.90
14301;DHT22;7234;59.306;18.024;2023-04-25T05:15:18;4.40;99.90
14301;DHT22;7234;59.306;18.024;2023-04-25T05:17:45;4.40;99.90
14301;DHT22;7234;59.306;18.024;2023-04-25T05:20:12;4.50;99.90
14301;DHT22;7234;59.306;18.024;2023-04-25T05:22:41;4.50;99.90
14301;DHT22;7234;59.306;18.024;2023-04-25T05:25:11;4.50;99.90
14301;DHT22;7234;59.306;18.024;2023-04-25T05:27:38;4.50;99.90
14301;DHT22;7234;59.306;18.024;2023-04-25T05:30:07;4.50;99.90
14301;DHT22;7234;59.306;18.024;2023-04-25T05:32:35;4.60;99.90
14301;DHT22;7234;59.306;18.024;2023-04-25T05:35:03;4.60;99.90
14301;DHT22;7234;59.306;18.024;2023-04-25T05:37:32;4.70;99.90
14301;DHT22;7234;59.306;18.024;2023-04-25T05:40:00;4.70;99.90
14301;DHT22;7234;59.306;18.024;2023-04-25T05:42:32;4.70;99.90
14301;DHT22;7234;59.306;18.024;2023-04-25T05:45:00;4.70;99.90
14301;DHT22;7234;59.306;18.024;2023-04-25T05:47:27;4.70;99.90
14301;DHT22;7234;59.306;18.024;2023-04-25T05:49:55;4.80;99.90
14301;DHT22;7234;59.306;18.024;2023-04-25T05:52:22;4.80;99.90
14301;DHT22;7234;59.306;18.024;2023-04-25T05:54:49;4.80;99.90
14301;DHT22;7234;59.306;18.024;2023-04-25T05:57:22;4.80;99.90
14301;DHT22;7234;59.306;18.024;2023-04-25T05:59:50;4.70;99.90
14301;DHT22;7234;59.306;18.024;2023-04-25T06:02:19;4.80;99.90
14301;DHT22;7234;59.306;18.024;2023-04-25T06:04:47;4.80;99.90
14301;DHT22;7234;59.306;18.024;2023-04-25T06:07:14;4.90;99.90
14301;DHT22;7234;59.306;18.024;2023-04-25T06:09:43;5.00;99.90
14301;DHT22;7234;59.306;18.024;2023-04-25T06:12:10;5.00;99.90
14301;DHT22;7234;59.306;18.024;2023-04-25T06:14:40;5.10;99.90
14301;DHT22;7234;59.306;18.024;2023-04-25T06:17:08;5.10;99.90
14301;DHT22;7234;59.306;18.024;2023-04-25T06:19:36;5.00;99.90
14301;DHT22;7234;59.306;18.024;2023-04-25T06:22:03;5.00;99.90
14301;DHT22;7234;59.306;18.024;2023-04-25T06:24:30;5.00;99.90
14301;DHT22;7234;59.306;18.024;2023-04-25T06:26:57;5.00;99.90
14301;DHT22;7234;59.306;18.024;2023-04-25T06:29:25;5.10;99.90
14301;DHT22;7234;59.306;18.024;2023-04-25T06:31:54;5.10;99.90
14301;DHT22;7234;59.306;18.024;2023-04-25T06:34:21;5.10;99.90
14301;DHT22;7234;59.306;18.024;2023-04-25T06:36:48;5.20;99.90
14301;DHT22;7234;59.306;18.024;2023-04-25T17:16:46;8.30;99.90
14301;DHT22;7234;59.306;18.024;2023-04-25T17:19:18;8.30;99.90
14301;DHT22;7234;59.306;18.024;2023-04-25T17:21:46;8.20;99.90
14301;DHT22;7234;59.306;18.024;2023-04-25T17:24:14;8.30;99.90
14301;DHT22;7234;59.306;18.024;2023-04-25T17:26:55;8.20;99.90
14301;DHT22;7234;59.306;18.024;2023-04-25T17:29:22;8.20;99.90
14301;DHT22;7234;59.306;18.024;2023-04-25T17:31:53;8.30;99.90
14301;DHT22;7234;59.306;18.024;2023-04-25T17:34:21;8.30;99.90
14301;DHT22;7234;59.306;18.024;2023-04-25T17:36:49;8.30;99.90
14301;DHT22;7234;59.306;18.024;2023-04-25T17:39:16;8.20;99.90
14301;DHT22;7234;59.306;18.024;2023-04-25T17:41:44;8.30;99.90
14301;DHT22;7234;59.306;18.024;2023-04-25T17:44:13;8.30;99.90
14301;DHT22;7234;59.306;18.024;2023-04-25T17:46:40;8.30;99.90
14301;DHT22;7234;59.306;18.024;2023-04-25T17:49:09;8.30;99.90
14301;DHT22;7234;59.306;18.024;2023-04-25T17:51:39;8.30;99.90
14301;DHT22;7234;59.306;18.024;2023-04-25T17:54:06;8.20;99.90
14301;DHT22;7234;59.306;18.024;2023-04-25T17:56:36;8.20;99.90
14301;DHT22;7234;59.306;18.024;2023-04-25T17:59:04;8.30;99.90
14301;DHT22;7234;59.306;18.024;2023-04-25T18:01:32;8.20;99.90
14301;DHT22;7234;59.306;18.024;2023-04-25T18:03:59;8.20;99.90
14301;DHT22;7234;59.306;18.024;2023-04-25T18:06:30;8.10;99.90
14301;DHT22;7234;59.306;18.024;2023-04-25T18:08:58;8.10;99.90
14301;DHT22;7234;59.306;18.024;2023-04-25T18:11:27;8.10;99.90
14301;DHT22;7234;59.306;18.024;2023-04-25T18:13:54;8.10;99.90
14301;DHT22;7234;59.306;18.024;2023-04-25T18:16:21;8.10;99.90
14301;DHT22;7234;59.306;18.024;2023-04-25T18:18:49;8.10;99.90
14301;DHT22;7234;59.306;18.024;2023-04-25T18:21:31;8.10;99.90
14301;DHT22;7234;59.306;18.024;2023-04-25T18:23:59;8.10;99.90
14301;DHT22;7234;59.306;18.024;2023-04-25T18:26:27;8.00;99.90
14301;DHT22;7234;59.306;18.024;2023-04-25T18:28:55;8.00;99.90
14301;DHT22;7234;59.306;18.024;2023-04-25T18:31:24;8.00;99.90
14301;DHT22;7234;59.306;18.024;2023-04-25T18:33:51;8.00;99.90
14301;DHT22;7234;59.306;18.024;2023-04-25T18:36:19;7.90;99.90
14301;DHT22;7234;59.306;18.024;2023-04-25T18:38:48;7.90;99.90
14301;DHT22;7234;59.306;18.024;2023-04-25T18:41:20;7.90;99.90
14301;DHT22;7234;59.306;18.024;2023-04-25T18:43:48;7.80;99.90
14301;DHT22;7234;59.306;18.024;2023-04-25T18:46:16;7.80;99.90
14301;DHT22;7234;59.306;18.024;2023-04-25T18:48:46;7.80;99.90
14301;DHT22;7234;59.306;18.024;2023-04-25T18:51:14;7.70;99.90
14301;DHT22;7234;59.306;18.024;2023-04-25T18:53:44;7.70;99.90
14301;DHT22;7234;59.306;18.024;2023-04-25T18:56:13;7.70;99.90
14301;DHT22;7234;59.306;18.024;2023-04-25T18:58:42;7.70;99.90
14301;DHT22;7234;59.306;18.024;2023-04-25T19:01:11;7.80;99.90
14301;DHT22;7234;59.306;18.024;2023-04-25T19:03:39;7.70;99.90
14301;DHT22;7234;59.306;18.024;2023-04-25T19:06:07;7.70;99.90
14301;DHT22;7234;59.306;18.024;2023-04-25T19:08:34;7.60;99.90
14301;DHT22;7234;59.306;18.024;2023-04-25T19:11:01;7.50;99.90
14301;DHT22;7234;59.306;18.024;2023-04-25T19:13:32;7.50;99.90
